createdAt,value
2019-04-30T07:05:48.630Z,14.03
2019-04-30T07:11:11.273Z,16.42
2019-04-30T07:16:13.727Z,17.99
2019-04-30T07:21:19.542Z,19.34
2019-04-30T07:26:24.679Z,20.65
2019-04-30T07:31:29.404Z,21.55
2019-04-30T07:36:45.834Z,22.50
2019-04-30T07:41:37.009Z,23.17
2019-04-30T07:46:41.177Z,23.49
2019-04-30T07:51:44.570Z,24.01
2019-04-30T07:56:50.469Z,24.33
2019-04-30T08:02:06.654Z,24.57
2019-04-30T08:06:59.554Z,24.71
2019-04-30T08:12:02.130Z,24.32
2019-04-30T08:17:04.703Z,24.80
2019-04-30T08:22:06.892Z,24.68
2019-04-30T08:27:09.759Z,24.82
2019-04-30T08:32:12.812Z,24.84
2019-04-30T08:37:19.616Z,24.93
2019-04-30T08:42:30.807Z,25.04
2019-04-30T08:47:24.793Z,25.06
2019-04-30T08:52:27.558Z,25.25
2019-04-30T08:57:29.810Z,25.27
2019-04-30T09:02:32.401Z,25.25
2019-04-30T09:07:35.001Z,25.52
2019-04-30T09:12:37.278Z,25.71
2019-04-30T09:17:40.066Z,25.69
2019-04-30T09:22:42.703Z,26.05
2019-04-30T09:27:45.194Z,26.34
2019-04-30T09:32:49.950Z,26.39
2019-04-30T09:37:58.924Z,26.74
2019-04-30T09:42:58.543Z,26.86
2019-04-30T09:48:01.559Z,27.12
2019-04-30T09:53:04.274Z,27.22
2019-04-30T09:58:16.191Z,27.44
2019-04-30T10:03:12.689Z,27.35
2019-04-30T10:08:15.868Z,27.48
2019-04-30T10:13:18.320Z,27.56
2019-04-30T10:18:21.454Z,27.65
2019-04-30T10:23:24.661Z,28.03
2019-04-30T10:28:28.311Z,28.23
2019-04-30T10:33:30.868Z,28.22
2019-04-30T10:38:33.206Z,28.32
2019-04-30T10:43:36.632Z,28.38
2019-04-30T10:48:38.855Z,28.67
2019-04-30T10:53:41.328Z,28.48
2019-04-30T10:58:43.767Z,28.73
2019-04-30T11:03:46.508Z,28.71
2019-04-30T11:08:49.514Z,28.74
2019-04-30T11:13:52.062Z,28.59
2019-04-30T11:18:55.078Z,28.94
2019-04-30T11:23:59.487Z,29.10
2019-04-30T11:29:02.327Z,29.19
2019-04-30T11:34:06.075Z,29.25
2019-04-30T11:39:14.536Z,29.42
2019-04-30T11:44:35.984Z,29.32
2019-04-30T11:49:21.843Z,29.50
2019-04-30T11:54:25.013Z,29.41
2019-04-30T11:59:29.783Z,29.21
2019-04-30T12:04:32.156Z,29.05
2019-04-30T12:09:54.430Z,29.13
2019-04-30T12:14:59.589Z,29.46
2019-04-30T12:20:01.670Z,29.50
2019-04-30T12:25:05.464Z,28.85
2019-04-30T12:30:09.465Z,28.66
2019-04-30T12:35:13.117Z,28.47
2019-04-30T12:40:26.646Z,27.73
2019-04-30T12:45:20.540Z,27.79
2019-04-30T12:50:39.575Z,27.96
2019-04-30T12:55:49.079Z,27.73
2019-04-30T13:00:51.716Z,27.60
2019-04-30T13:05:55.952Z,27.34
2019-04-30T13:10:59.527Z,27.25
2019-04-30T13:16:02.119Z,27.31
2019-04-30T13:21:04.768Z,27.54
2019-04-30T13:26:08.929Z,27.43
2019-04-30T13:31:11.388Z,27.87
2019-04-30T13:36:14.395Z,27.81
2019-04-30T13:41:36.813Z,27.56
2019-04-30T13:46:39.626Z,27.65
2019-04-30T13:51:42.994Z,27.33
2019-04-30T13:56:46.277Z,26.64
2019-04-30T14:01:48.993Z,26.40
2019-04-30T14:07:00.983Z,26.17
2019-04-30T14:12:03.795Z,26.10
2019-04-30T14:17:06.073Z,26.06
2019-04-30T14:22:09.063Z,25.94
2019-04-30T14:27:12.495Z,25.68
2019-04-30T14:32:15.220Z,25.24
2019-04-30T14:37:18.095Z,25.17
2019-04-30T14:42:22.006Z,25.46
2019-04-30T14:47:50.083Z,25.59
2019-04-30T14:53:01.466Z,25.63
2019-04-30T14:58:16.486Z,25.30
2019-04-30T15:03:20.019Z,24.94
2019-04-30T15:08:22.678Z,24.81
2019-04-30T15:13:25.485Z,24.87
2019-04-30T15:18:29.009Z,24.87
2019-04-30T15:23:58.781Z,24.88
2019-04-30T15:28:57.258Z,24.92
2019-04-30T15:34:13.099Z,24.40
2019-04-30T15:39:33.782Z,24.23
2019-04-30T15:44:40.181Z,24.13
2019-04-30T15:49:41.436Z,24.13
2019-04-30T15:54:44.417Z,24.21
2019-04-30T15:59:48.214Z,24.27
2019-04-30T16:05:08.756Z,24.21
2019-04-30T16:10:30.133Z,24.08
2019-04-30T16:15:32.495Z,23.81
2019-04-30T16:20:35.193Z,23.54
2019-04-30T16:25:39.036Z,23.40
2019-04-30T16:30:42.975Z,23.13
2019-04-30T16:35:45.338Z,22.91
2019-04-30T16:40:48.868Z,22.74
2019-04-30T16:45:51.646Z,22.65
2019-04-30T16:50:54.319Z,22.59
2019-04-30T16:55:58.621Z,22.35
2019-04-30T17:01:04.272Z,22.19
2019-04-30T17:06:13.139Z,22.09
2019-04-30T17:11:35.039Z,21.98
2019-04-30T17:16:39.142Z,21.95
2019-04-30T17:21:42.225Z,21.77
2019-04-30T17:26:45.126Z,21.65
2019-04-30T17:31:47.704Z,21.49
2019-04-30T17:36:51.186Z,21.44
2019-04-30T17:41:53.623Z,21.41
2019-04-30T17:46:55.775Z,21.40
2019-04-30T17:51:59.203Z,21.36
2019-04-30T17:57:02.058Z,21.28
2019-04-30T18:02:06.557Z,21.17
2019-04-30T18:07:10.103Z,21.03
2019-04-30T18:12:12.524Z,20.79
2019-04-30T18:17:15.196Z,20.61
2019-04-30T18:22:37.353Z,20.48
2019-04-30T18:27:49.621Z,20.34
2019-04-30T18:32:52.025Z,20.20
2019-04-30T18:37:54.883Z,20.09
2019-04-30T18:42:59.294Z,19.95
2019-04-30T18:48:01.854Z,19.80
2019-04-30T18:53:10.363Z,19.63
2019-04-30T18:58:12.868Z,19.50
2019-04-30T19:03:19.130Z,19.35
2019-04-30T19:08:35.381Z,19.13
2019-04-30T19:14:00.619Z,18.85
2019-04-30T19:19:09.739Z,18.49
2019-04-30T19:24:13.511Z,18.05
2019-04-30T19:29:15.931Z,17.93
2019-04-30T19:34:18.908Z,17.88
2019-04-30T19:39:21.064Z,17.66
2019-04-30T19:44:23.984Z,17.48
2019-04-30T19:49:26.875Z,17.43
2019-04-30T19:54:29.872Z,17.26
2019-04-30T19:59:32.885Z,17.06
2019-04-30T20:04:36.443Z,17.01
2019-04-30T20:09:39.215Z,17.04
2019-04-30T20:14:41.434Z,16.90
2019-04-30T20:19:44.152Z,16.73
2019-04-30T20:24:46.866Z,16.59
2019-04-30T20:29:51.709Z,16.31
2019-04-30T20:34:53.567Z,16.17
2019-04-30T20:40:03.633Z,16.15
2019-04-30T20:45:08.981Z,16.02
2019-04-30T20:50:12.723Z,15.90
2019-04-30T20:55:15.450Z,15.83
2019-04-30T21:00:18.012Z,15.81
2019-04-30T21:05:20.656Z,15.84
2019-04-30T21:10:22.853Z,15.87
2019-04-30T21:15:25.129Z,15.87
2019-04-30T21:20:28.853Z,15.92
2019-04-30T21:25:32.294Z,15.87
2019-04-30T21:30:35.320Z,15.84
2019-04-30T21:35:43.975Z,15.80
2019-04-30T21:40:46.931Z,15.85
2019-04-30T21:45:49.576Z,15.83
2019-04-30T21:50:51.972Z,15.86
2019-04-30T21:55:54.159Z,15.95
2019-04-30T22:01:22.635Z,16.02
2019-04-30T22:06:25.343Z,16.02
2019-04-30T22:11:29.663Z,16.12
2019-04-30T22:16:32.137Z,16.13
2019-04-30T22:21:34.590Z,16.17
2019-04-30T22:26:36.733Z,16.15
2019-04-30T22:31:39.720Z,16.14
2019-04-30T22:36:46.077Z,16.04
2019-04-30T22:41:48.511Z,15.92
2019-04-30T22:46:50.992Z,15.93
2019-04-30T22:51:53.263Z,15.88
2019-04-30T22:56:56.048Z,15.62
2019-04-30T23:02:20.403Z,15.53
2019-04-30T23:07:22.672Z,15.55
2019-04-30T23:12:25.149Z,15.25
2019-04-30T23:17:27.883Z,15.19
2019-04-30T23:22:30.722Z,15.15
2019-04-30T23:27:33.008Z,15.21
2019-04-30T23:32:35.731Z,15.29
2019-04-30T23:37:39.572Z,15.45
2019-04-30T23:42:42.086Z,15.51
2019-04-30T23:47:44.573Z,15.52
2019-04-30T23:52:46.946Z,15.45
2019-04-30T23:57:49.158Z,15.45
